Terminal Aerodrome Forecast
Issued by NWS

Home | Current Version | Previous Version | Text Only | Print | Product List | Glossary On
Versions: 1 2 3 4 5 6 7 8 9 10 11 12 13 14 15 16 17 18 19 20 21 22
000
FTUS45 KGJT 250531
TAFDRO
TAF
KDRO 250531Z 2506/2606 00000KT P6SM OVC110
     FM250800 28005KT P6SM VCSH BKN110
     FM251000 32006KT P6SM VCSH OVC090
     FM251500 25008KT P6SM -SHRA OVC040
     FM251900 25010KT P6SM VCSH BKN080
     FM252100 26014G22KT P6SM VCTS BKN070CB=

USA.gov is the U.S. government's official web portal to all federal, state and local government web resources and services.